sensor_id;sensor_type;location;lat;lon;timestamp;pressure;altitude;pressure_sealevel;temperature;humidity
59329;BME280;45100;46.926;7.452;2023-12-20T00:00:37;95634.84;;;1.64;100.00
59329;BME280;45100;46.926;7.452;2023-12-20T00:03:06;95621.61;;;1.65;100.00
59329;BME280;45100;46.926;7.452;2023-12-20T00:05:41;95619.19;;;1.65;100.00
59329;BME280;45100;46.926;7.452;2023-12-20T00:08:08;95621.41;;;1.67;100.00
59329;BME280;45100;46.926;7.452;2023-12-20T00:10:39;95620.83;;;1.67;100.00
59329;BME280;45100;46.926;7.452;2023-12-20T00:13:10;95622.70;;;1.69;100.00
59329;BME280;45100;46.926;7.452;2023-12-20T00:15:40;95628.96;;;1.71;100.00
59329;BME280;45100;46.926;7.452;2023-12-20T00:18:11;95642.16;;;1.73;100.00
59329;BME280;45100;46.926;7.452;2023-12-20T00:20:41;95636.34;;;1.73;100.00
59329;BME280;45100;46.926;7.452;2023-12-20T00:23:12;95630.44;;;1.73;100.00
59329;BME280;45100;46.926;7.452;2023-12-20T00:25:43;95623.02;;;1.72;100.00
59329;BME280;45100;46.926;7.452;2023-12-20T00:28:13;95612.61;;;1.73;100.00
59329;BME280;45100;46.926;7.452;2023-12-20T00:30:44;95605.12;;;1.73;100.00
59329;BME280;45100;46.926;7.452;2023-12-20T00:33:15;95607.57;;;1.73;100.00
59329;BME280;45100;46.926;7.452;2023-12-20T00:35:46;95599.25;;;1.74;100.00
59329;BME280;45100;46.926;7.452;2023-12-20T00:38:17;95603.38;;;1.75;100.00
59329;BME280;45100;46.926;7.452;2023-12-20T00:40:48;95611.86;;;1.74;100.00
59329;BME280;45100;46.926;7.452;2023-12-20T00:45:50;95610.05;;;1.72;100.00
59329;BME280;45100;46.926;7.452;2023-12-20T00:48:20;95606.40;;;1.73;100.00
59329;BME280;45100;46.926;7.452;2023-12-20T00:50:51;95615.80;;;1.73;100.00
59329;BME280;45100;46.926;7.452;2023-12-20T00:53:21;95605.50;;;1.72;100.00
59329;BME280;45100;46.926;7.452;2023-12-20T00:55:52;95594.69;;;1.72;100.00
59329;BME280;45100;46.926;7.452;2023-12-20T00:58:22;95584.95;;;1.69;100.00
59329;BME280;45100;46.926;7.452;2023-12-20T01:00:53;95578.80;;;1.67;100.00
59329;BME280;45100;46.926;7.452;2023-12-20T01:03:24;95565.95;;;1.63;100.00
59329;BME280;45100;46.926;7.452;2023-12-20T01:05:55;95566.73;;;1.61;100.00
59329;BME280;45100;46.926;7.452;2023-12-20T01:08:25;95577.90;;;1.60;100.00
59329;BME280;45100;46.926;7.452;2023-12-20T01:10:56;95581.63;;;1.61;100.00
59329;BME280;45100;46.926;7.452;2023-12-20T01:13:27;95594.65;;;1.62;100.00
59329;BME280;45100;46.926;7.452;2023-12-20T01:15:58;95607.94;;;1.63;100.00
59329;BME280;45100;46.926;7.452;2023-12-20T01:18:28;95612.59;;;1.62;100.00
59329;BME280;45100;46.926;7.452;2023-12-20T01:21:05;95598.48;;;1.62;100.00
59329;BME280;45100;46.926;7.452;2023-12-20T01:23:30;95594.40;;;1.63;100.00
59329;BME280;45100;46.926;7.452;2023-12-20T01:26:00;95591.12;;;1.63;100.00
59329;BME280;45100;46.926;7.452;2023-12-20T01:28:31;95590.06;;;1.65;100.00
59329;BME280;45100;46.926;7.452;2023-12-20T01:31:02;95593.28;;;1.66;100.00
59329;BME280;45100;46.926;7.452;2023-12-20T01:33:33;95608.83;;;1.67;100.00
59329;BME280;45100;46.926;7.452;2023-12-20T01:36:04;95614.25;;;1.67;100.00
59329;BME280;45100;46.926;7.452;2023-12-20T01:38:34;95609.52;;;1.66;100.00
59329;BME280;45100;46.926;7.452;2023-12-20T01:41:05;95605.58;;;1.65;100.00
59329;BME280;45100;46.926;7.452;2023-12-20T01:43:36;95606.38;;;1.65;100.00
59329;BME280;45100;46.926;7.452;2023-12-20T01:46:06;95601.78;;;1.64;100.00
59329;BME280;45100;46.926;7.452;2023-12-20T01:48:36;95593.88;;;1.65;100.00
59329;BME280;45100;46.926;7.452;2023-12-20T01:51:07;95594.12;;;1.65;100.00
59329;BME280;45100;46.926;7.452;2023-12-20T01:53:38;95588.98;;;1.66;100.00
59329;BME280;45100;46.926;7.452;2023-12-20T01:56:09;95585.45;;;1.68;100.00
59329;BME280;45100;46.926;7.452;2023-12-20T01:58:43;95592.27;;;1.70;100.00
59329;BME280;45100;46.926;7.452;2023-12-20T02:01:10;95598.08;;;1.70;100.00
59329;BME280;45100;46.926;7.452;2023-12-20T02:03:41;95597.00;;;1.71;100.00
59329;BME280;45100;46.926;7.452;2023-12-20T02:06:11;95606.91;;;1.74;100.00
59329;BME280;45100;46.926;7.452;2023-12-20T02:08:40;95607.89;;;1.77;100.00
59329;BME280;45100;46.926;7.452;2023-12-20T02:11:11;95606.34;;;1.78;100.00
59329;BME280;45100;46.926;7.452;2023-12-20T02:13:42;95606.69;;;1.81;100.00
59329;BME280;45100;46.926;7.452;2023-12-20T02:16:13;95604.33;;;1.83;100.00
59329;BME280;45100;46.926;7.452;2023-12-20T02:18:44;95603.61;;;1.88;100.00
59329;BME280;45100;46.926;7.452;2023-12-20T02:21:14;95608.42;;;1.96;100.00
59329;BME280;45100;46.926;7.452;2023-12-20T02:23:45;95607.39;;;2.03;100.00
59329;BME280;45100;46.926;7.452;2023-12-20T02:26:16;95602.30;;;2.10;100.00
59329;BME280;45100;46.926;7.452;2023-12-20T02:28:47;95595.71;;;2.16;100.00
59329;BME280;45100;46.926;7.452;2023-12-20T02:31:20;95593.92;;;2.20;100.00
59329;BME280;45100;46.926;7.452;2023-12-20T02:33:48;95587.72;;;2.26;100.00
59329;BME280;45100;46.926;7.452;2023-12-20T02:36:19;95577.55;;;2.32;100.00
59329;BME280;45100;46.926;7.452;2023-12-20T02:38:51;95576.52;;;2.38;100.00
59329;BME280;45100;46.926;7.452;2023-12-20T02:41:20;95573.23;;;2.42;100.00
59329;BME280;45100;46.926;7.452;2023-12-20T02:43:50;95568.31;;;2.45;100.00
59329;BME280;45100;46.926;7.452;2023-12-20T02:46:22;95576.48;;;2.50;100.00
59329;BME280;45100;46.926;7.452;2023-12-20T02:48:51;95582.57;;;2.56;100.00
59329;BME280;45100;46.926;7.452;2023-12-20T02:51:22;95586.80;;;2.62;100.00
59329;BME280;45100;46.926;7.452;2023-12-20T02:53:52;95593.12;;;2.67;100.00
59329;BME280;45100;46.926;7.452;2023-12-20T02:56:23;95589.84;;;2.71;100.00
59329;BME280;45100;46.926;7.452;2023-12-20T02:58:54;95588.08;;;2.74;100.00
59329;BME280;45100;46.926;7.452;2023-12-20T03:01:25;95594.60;;;2.78;100.00
59329;BME280;45100;46.926;7.452;2023-12-20T03:03:56;95588.15;;;2.82;100.00
59329;BME280;45100;46.926;7.452;2023-12-20T03:06:26;95582.56;;;2.84;100.00
59329;BME280;45100;46.926;7.452;2023-12-20T03:08:57;95578.33;;;2.84;100.00
59329;BME280;45100;46.926;7.452;2023-12-20T03:11:29;95577.59;;;2.85;100.00
59329;BME280;45100;46.926;7.452;2023-12-20T03:13:58;95567.20;;;2.86;100.00
59329;BME280;45100;46.926;7.452;2023-12-20T03:16:29;95565.30;;;2.89;100.00
59329;BME280;45100;46.926;7.452;2023-12-20T03:19:00;95574.35;;;2.94;100.00
59329;BME280;45100;46.926;7.452;2023-12-20T03:21:31;95568.73;;;2.97;100.00
59329;BME280;45100;46.926;7.452;2023-12-20T03:24:01;95565.73;;;3.02;100.00
59329;BME280;45100;46.926;7.452;2023-12-20T03:26:32;95565.27;;;3.10;100.00
59329;BME280;45100;46.926;7.452;2023-12-20T03:29:03;95561.45;;;3.19;100.00
59329;BME280;45100;46.926;7.452;2023-12-20T03:31:34;95558.28;;;3.26;100.00
59329;BME280;45100;46.926;7.452;2023-12-20T03:34:04;95561.61;;;3.31;100.00
59329;BME280;45100;46.926;7.452;2023-12-20T03:36:35;95571.37;;;3.32;100.00
59329;BME280;45100;46.926;7.452;2023-12-20T03:39:06;95575.70;;;3.35;100.00
59329;BME280;45100;46.926;7.452;2023-12-20T03:41:37;95575.66;;;3.36;100.00
59329;BME280;45100;46.926;7.452;2023-12-20T03:44:07;95578.97;;;3.35;100.00
59329;BME280;45100;46.926;7.452;2023-12-20T03:46:38;95584.50;;;3.34;100.00
59329;BME280;45100;46.926;7.452;2023-12-20T03:49:09;95583.90;;;3.30;100.00
59329;BME280;45100;46.926;7.452;2023-12-20T03:51:40;95585.27;;;3.26;100.00
59329;BME280;45100;46.926;7.452;2023-12-20T03:54:10;95587.97;;;3.25;100.00
59329;BME280;45100;46.926;7.452;2023-12-20T03:56:41;95593.02;;;3.24;100.00
59329;BME280;45100;46.926;7.452;2023-12-20T03:59:12;95587.59;;;3.23;100.00
59329;BME280;45100;46.926;7.452;2023-12-20T04:01:43;95582.62;;;3.24;100.00
59329;BME280;45100;46.926;7.452;2023-12-20T04:04:13;95578.36;;;3.22;100.00
59329;BME280;45100;46.926;7.452;2023-12-20T04:06:44;95581.45;;;3.20;100.00
59329;BME280;45100;46.926;7.452;2023-12-20T04:09:15;95580.17;;;3.18;100.00
59329;BME280;45100;46.926;7.452;2023-12-20T04:11:46;95579.27;;;3.18;100.00
59329;BME280;45100;46.926;7.452;2023-12-20T04:14:16;95578.91;;;3.20;100.00
59329;BME280;45100;46.926;7.452;2023-12-20T04:16:47;95584.95;;;3.27;100.00
59329;BME280;45100;46.926;7.452;2023-12-20T04:19:18;95587.09;;;3.36;100.00
59329;BME280;45100;46.926;7.452;2023-12-20T04:21:49;95588.12;;;3.41;100.00
59329;BME280;45100;46.926;7.452;2023-12-20T04:24:19;95593.70;;;3.42;100.00
59329;BME280;45100;46.926;7.452;2023-12-20T04:26:50;95590.47;;;3.41;100.00
59329;BME280;45100;46.926;7.452;2023-12-20T04:29:21;95598.06;;;3.38;100.00
59329;BME280;45100;46.926;7.452;2023-12-20T04:31:55;95605.20;;;3.34;100.00
59329;BME280;45100;46.926;7.452;2023-12-20T04:34:23;95609.15;;;3.30;100.00
59329;BME280;45100;46.926;7.452;2023-12-20T04:36:52;95614.60;;;3.26;100.00
59329;BME280;45100;46.926;7.452;2023-12-20T04:39:22;95619.24;;;3.22;100.00
59329;BME280;45100;46.926;7.452;2023-12-20T04:41:53;95621.49;;;3.19;100.00
59329;BME280;45100;46.926;7.452;2023-12-20T04:44:24;95628.27;;;3.16;100.00
59329;BME280;45100;46.926;7.452;2023-12-20T04:46:57;95628.41;;;3.14;100.00
59329;BME280;45100;46.926;7.452;2023-12-20T04:49:25;95627.52;;;3.11;100.00
59329;BME280;45100;46.926;7.452;2023-12-20T04:51:57;95632.14;;;3.08;100.00
59329;BME280;45100;46.926;7.452;2023-12-20T04:54:26;95629.82;;;3.05;100.00
59329;BME280;45100;46.926;7.452;2023-12-20T04:56:57;95624.22;;;3.03;100.00
59329;BME280;45100;46.926;7.452;2023-12-20T04:59:28;95626.72;;;3.02;100.00
59329;BME280;45100;46.926;7.452;2023-12-20T05:01:59;95636.75;;;2.99;100.00
59329;BME280;45100;46.926;7.452;2023-12-20T05:04:29;95635.41;;;2.99;100.00
59329;BME280;45100;46.926;7.452;2023-12-20T05:06:59;95633.03;;;2.98;100.00
59329;BME280;45100;46.926;7.452;2023-12-20T05:09:30;95627.44;;;2.98;100.00
59329;BME280;45100;46.926;7.452;2023-12-20T05:14:33;95625.41;;;3.00;100.00
59329;BME280;45100;46.926;7.452;2023-12-20T05:17:04;95627.81;;;3.03;100.00
59329;BME280;45100;46.926;7.452;2023-12-20T05:19:36;95632.55;;;3.08;100.00
59329;BME280;45100;46.926;7.452;2023-12-20T05:22:05;95638.55;;;3.17;100.00
59329;BME280;45100;46.926;7.452;2023-12-20T05:24:36;95641.56;;;3.27;100.00
59329;BME280;45100;46.926;7.452;2023-12-20T05:27:07;95643.45;;;3.34;100.00
59329;BME280;45100;46.926;7.452;2023-12-20T05:29:38;95649.25;;;3.38;100.00
59329;BME280;45100;46.926;7.452;2023-12-20T05:32:08;95653.70;;;3.41;100.00
59329;BME280;45100;46.926;7.452;2023-12-20T05:34:39;95660.00;;;3.42;100.00
59329;BME280;45100;46.926;7.452;2023-12-20T05:37:10;95662.98;;;3.44;100.00
59329;BME280;45100;46.926;7.452;2023-12-20T05:39:41;95666.31;;;3.44;100.00
59329;BME280;45100;46.926;7.452;2023-12-20T05:42:11;95673.52;;;3.45;100.00
59329;BME280;45100;46.926;7.452;2023-12-20T05:44:42;95678.50;;;3.46;100.00
59329;BME280;45100;46.926;7.452;2023-12-20T05:47:12;95677.84;;;3.47;100.00
59329;BME280;45100;46.926;7.452;2023-12-20T05:49:44;95676.45;;;3.45;100.00
59329;BME280;45100;46.926;7.452;2023-12-20T05:52:13;95678.92;;;3.43;100.00
59329;BME280;45100;46.926;7.452;2023-12-20T05:54:44;95679.17;;;3.39;100.00
59329;BME280;45100;46.926;7.452;2023-12-20T05:57:14;95682.67;;;3.36;100.00
59329;BME280;45100;46.926;7.452;2023-12-20T05:59:45;95672.59;;;3.34;100.00
59329;BME280;45100;46.926;7.452;2023-12-20T06:02:16;95659.04;;;3.33;100.00
59329;BME280;45100;46.926;7.452;2023-12-20T06:04:46;95664.31;;;3.33;100.00
59329;BME280;45100;46.926;7.452;2023-12-20T06:07:17;95668.16;;;3.35;100.00
59329;BME280;45100;46.926;7.452;2023-12-20T06:09:48;95666.65;;;3.39;100.00
59329;BME280;45100;46.926;7.452;2023-12-20T06:12:19;95669.91;;;3.42;100.00
59329;BME280;45100;46.926;7.452;2023-12-20T06:14:50;95672.52;;;3.43;100.00
59329;BME280;45100;46.926;7.452;2023-12-20T06:17:20;95673.68;;;3.44;100.00
59329;BME280;45100;46.926;7.452;2023-12-20T06:19:51;95679.16;;;3.45;100.00
59329;BME280;45100;46.926;7.452;2023-12-20T06:22:22;95688.44;;;3.45;100.00
59329;BME280;45100;46.926;7.452;2023-12-20T06:24:53;95700.72;;;3.46;100.00
59329;BME280;45100;46.926;7.452;2023-12-20T06:27:23;95697.53;;;3.45;100.00
59329;BME280;45100;46.926;7.452;2023-12-20T06:29:55;95703.07;;;3.45;100.00
59329;BME280;45100;46.926;7.452;2023-12-20T06:34:59;95706.84;;;3.40;100.00
59329;BME280;45100;46.926;7.452;2023-12-20T06:37:29;95712.18;;;3.38;100.00
59329;BME280;45100;46.926;7.452;2023-12-20T06:40:01;95708.33;;;3.36;100.00
59329;BME280;45100;46.926;7.452;2023-12-20T06:42:30;95707.76;;;3.32;100.00
59329;BME280;45100;46.926;7.452;2023-12-20T06:45:01;95703.05;;;3.30;100.00
59329;BME280;45100;46.926;7.452;2023-12-20T06:47:32;95706.47;;;3.27;100.00
59329;BME280;45100;46.926;7.452;2023-12-20T06:50:03;95705.62;;;3.26;100.00
59329;BME280;45100;46.926;7.452;2023-12-20T06:52:33;95706.89;;;3.23;100.00
59329;BME280;45100;46.926;7.452;2023-12-20T06:55:04;95709.57;;;3.21;100.00
59329;BME280;45100;46.926;7.452;2023-12-20T06:57:35;95707.01;;;3.19;100.00
59329;BME280;45100;46.926;7.452;2023-12-20T07:02:38;95711.27;;;3.17;100.00
59329;BME280;45100;46.926;7.452;2023-12-20T07:05:08;95713.36;;;3.16;100.00
59329;BME280;45100;46.926;7.452;2023-12-20T07:07:39;95710.14;;;3.15;100.00
59329;BME280;45100;46.926;7.452;2023-12-20T07:10:10;95704.08;;;3.14;100.00
59329;BME280;45100;46.926;7.452;2023-12-20T07:12:40;95701.14;;;3.13;100.00
59329;BME280;45100;46.926;7.452;2023-12-20T07:15:11;95706.48;;;3.14;100.00
59329;BME280;45100;46.926;7.452;2023-12-20T07:17:43;95713.31;;;3.12;100.00
59329;BME280;45100;46.926;7.452;2023-12-20T07:20:12;95710.52;;;3.12;100.00
59329;BME280;45100;46.926;7.452;2023-12-20T07:22:43;95711.00;;;3.12;100.00
59329;BME280;45100;46.926;7.452;2023-12-20T07:25:14;95713.00;;;3.11;100.00
59329;BME280;45100;46.926;7.452;2023-12-20T07:27:45;95715.57;;;3.12;100.00
59329;BME280;45100;46.926;7.452;2023-12-20T07:30:16;95712.59;;;3.12;100.00
59329;BME280;45100;46.926;7.452;2023-12-20T07:32:47;95716.99;;;3.11;100.00
59329;BME280;45100;46.926;7.452;2023-12-20T07:35:17;95724.34;;;3.11;100.00
59329;BME280;45100;46.926;7.452;2023-12-20T07:37:48;95721.71;;;3.11;100.00
59329;BME280;45100;46.926;7.452;2023-12-20T07:40:19;95730.34;;;3.11;100.00
59329;BME280;45100;46.926;7.452;2023-12-20T07:42:50;95736.55;;;3.12;100.00
59329;BME280;45100;46.926;7.452;2023-12-20T07:45:20;95742.39;;;3.12;100.00
59329;BME280;45100;46.926;7.452;2023-12-20T07:50:23;95748.35;;;3.13;100.00
59329;BME280;45100;46.926;7.452;2023-12-20T07:52:54;95754.34;;;3.12;100.00
59329;BME280;45100;46.926;7.452;2023-12-20T07:55:25;95759.07;;;3.12;100.00
59329;BME280;45100;46.926;7.452;2023-12-20T07:57:55;95769.98;;;3.13;100.00
59329;BME280;45100;46.926;7.452;2023-12-20T08:00:26;95771.09;;;3.13;100.00
59329;BME280;45100;46.926;7.452;2023-12-20T08:02:56;95772.08;;;3.15;100.00
59329;BME280;45100;46.926;7.452;2023-12-20T08:05:27;95770.55;;;3.16;100.00
59329;BME280;45100;46.926;7.452;2023-12-20T08:07:58;95765.02;;;3.19;100.00
59329;BME280;45100;46.926;7.452;2023-12-20T08:10:30;95765.91;;;3.23;100.00
59329;BME280;45100;46.926;7.452;2023-12-20T08:12:59;95759.67;;;3.26;100.00
59329;BME280;45100;46.926;7.452;2023-12-20T08:15:30;95763.20;;;3.29;100.00
59329;BME280;45100;46.926;7.452;2023-12-20T08:18:01;95763.34;;;3.30;100.00
59329;BME280;45100;46.926;7.452;2023-12-20T08:20:31;95765.91;;;3.32;100.00
59329;BME280;45100;46.926;7.452;2023-12-20T08:23:02;95771.88;;;3.34;100.00
59329;BME280;45100;46.926;7.452;2023-12-20T08:25:33;95775.12;;;3.35;100.00
59329;BME280;45100;46.926;7.452;2023-12-20T08:28:05;95778.45;;;3.36;100.00
59329;BME280;45100;46.926;7.452;2023-12-20T08:30:34;95779.00;;;3.39;100.00
59329;BME280;45100;46.926;7.452;2023-12-20T08:33:06;95773.98;;;3.41;100.00
59329;BME280;45100;46.926;7.452;2023-12-20T08:35:36;95780.30;;;3.44;100.00
59329;BME280;45100;46.926;7.452;2023-12-20T08:38:06;95783.28;;;3.47;100.00
59329;BME280;45100;46.926;7.452;2023-12-20T08:40:37;95780.72;;;3.50;100.00
59329;BME280;45100;46.926;7.452;2023-12-20T08:43:07;95773.35;;;3.54;100.00
59329;BME280;45100;46.926;7.452;2023-12-20T08:45:38;95778.07;;;3.58;100.00
59329;BME280;45100;46.926;7.452;2023-12-20T08:48:08;95789.46;;;3.62;100.00
59329;BME280;45100;46.926;7.452;2023-12-20T08:50:39;95790.39;;;3.65;100.00
59329;BME280;45100;46.926;7.452;2023-12-20T08:53:09;95793.90;;;3.69;100.00
59329;BME280;45100;46.926;7.452;2023-12-20T08:55:40;95796.03;;;3.73;100.00
59329;BME280;45100;46.926;7.452;2023-12-20T08:58:11;95793.79;;;3.77;100.00
59329;BME280;45100;46.926;7.452;2023-12-20T09:00:42;95790.02;;;3.80;100.00
59329;BME280;45100;46.926;7.452;2023-12-20T09:03:12;95786.73;;;3.83;100.00
59329;BME280;45100;46.926;7.452;2023-12-20T09:05:43;95787.06;;;3.86;100.00
59329;BME280;45100;46.926;7.452;2023-12-20T09:08:14;95783.66;;;3.88;100.00
59329;BME280;45100;46.926;7.452;2023-12-20T09:10:45;95785.81;;;3.88;100.00
59329;BME280;45100;46.926;7.452;2023-12-20T09:13:15;95787.41;;;3.88;100.00
59329;BME280;45100;46.926;7.452;2023-12-20T09:15:46;95784.78;;;3.87;100.00
59329;BME280;45100;46.926;7.452;2023-12-20T09:18:16;95775.14;;;3.86;100.00
59329;BME280;45100;46.926;7.452;2023-12-20T09:20:47;95770.89;;;3.84;100.00
59329;BME280;45100;46.926;7.452;2023-12-20T09:23:19;95769.44;;;3.82;100.00
59329;BME280;45100;46.926;7.452;2023-12-20T09:25:48;95771.08;;;3.80;100.00
59329;BME280;45100;46.926;7.452;2023-12-20T09:28:19;95772.75;;;3.80;100.00
59329;BME280;45100;46.926;7.452;2023-12-20T09:30:50;95763.77;;;3.82;100.00
59329;BME280;45100;46.926;7.452;2023-12-20T09:33:21;95767.77;;;3.84;100.00
59329;BME280;45100;46.926;7.452;2023-12-20T09:35:51;95777.45;;;3.88;100.00
59329;BME280;45100;46.926;7.452;2023-12-20T09:38:23;95787.53;;;3.93;100.00
59329;BME280;45100;46.926;7.452;2023-12-20T09:40:53;95791.84;;;3.99;100.00
59329;BME280;45100;46.926;7.452;2023-12-20T09:43:24;95789.03;;;4.05;100.00
59329;BME280;45100;46.926;7.452;2023-12-20T09:45:54;95791.70;;;4.10;100.00
59329;BME280;45100;46.926;7.452;2023-12-20T09:48:26;95789.52;;;4.17;100.00
59329;BME280;45100;46.926;7.452;2023-12-20T09:50:55;95786.65;;;4.22;100.00
59329;BME280;45100;46.926;7.452;2023-12-20T09:56:05;95784.20;;;4.38;100.00
59329;BME280;45100;46.926;7.452;2023-12-20T09:58:36;95783.09;;;4.43;100.00
59329;BME280;45100;46.926;7.452;2023-12-20T10:01:06;95781.22;;;4.47;100.00
59329;BME280;45100;46.926;7.452;2023-12-20T10:03:39;95780.80;;;4.51;100.00
59329;BME280;45100;46.926;7.452;2023-12-20T10:06:06;95783.09;;;4.55;100.00
59329;BME280;45100;46.926;7.452;2023-12-20T10:08:36;95779.22;;;4.58;100.00
59329;BME280;45100;46.926;7.452;2023-12-20T10:11:07;95780.45;;;4.61;100.00
59329;BME280;45100;46.926;7.452;2023-12-20T10:13:41;95774.69;;;4.62;100.00
59329;BME280;45100;46.926;7.452;2023-12-20T10:16:10;95766.52;;;4.63;100.00
59329;BME280;45100;46.926;7.452;2023-12-20T10:21:12;95770.38;;;4.68;100.00
59329;BME280;45100;46.926;7.452;2023-12-20T10:26:21;95757.42;;;4.70;100.00
59329;BME280;45100;46.926;7.452;2023-12-20T10:28:45;95754.52;;;4.71;100.00
59329;BME280;45100;46.926;7.452;2023-12-20T10:31:30;95749.44;;;4.75;100.00
59329;BME280;45100;46.926;7.452;2023-12-20T10:33:45;95746.25;;;4.82;100.00
59329;BME280;45100;46.926;7.452;2023-12-20T10:36:16;95748.63;;;4.93;100.00
59329;BME280;45100;46.926;7.452;2023-12-20T10:43:52;95730.88;;;5.28;100.00
59329;BME280;45100;46.926;7.452;2023-12-20T10:48:57;95723.35;;;5.54;100.00
59329;BME280;45100;46.926;7.452;2023-12-20T10:51:33;95715.73;;;5.68;100.00
59329;BME280;45100;46.926;7.452;2023-12-20T10:53:57;95706.52;;;5.77;100.00
59329;BME280;45100;46.926;7.452;2023-12-20T10:56:32;95711.62;;;5.87;100.00
59329;BME280;45100;46.926;7.452;2023-12-20T10:59:01;95715.15;;;5.89;100.00
59329;BME280;45100;46.926;7.452;2023-12-20T11:01:30;95707.59;;;5.88;100.00
59329;BME280;45100;46.926;7.452;2023-12-20T11:04:00;95701.61;;;5.85;100.00
59329;BME280;45100;46.926;7.452;2023-12-20T11:06:52;95694.56;;;5.82;100.00
59329;BME280;45100;46.926;7.452;2023-12-20T11:09:16;95700.61;;;5.81;100.00
59329;BME280;45100;46.926;7.452;2023-12-20T11:11:35;95696.19;;;5.79;100.00
59329;BME280;45100;46.926;7.452;2023-12-20T11:14:07;95703.20;;;5.78;100.00
59329;BME280;45100;46.926;7.452;2023-12-20T11:16:36;95696.07;;;5.80;100.00
59329;BME280;45100;46.926;7.452;2023-12-20T11:19:07;95690.53;;;5.80;100.00
59329;BME280;45100;46.926;7.452;2023-12-20T11:21:34;95691.35;;;5.80;100.00
59329;BME280;45100;46.926;7.452;2023-12-20T11:24:05;95691.30;;;5.81;100.00
59329;BME280;45100;46.926;7.452;2023-12-20T11:26:35;95691.41;;;5.83;100.00
59329;BME280;45100;46.926;7.452;2023-12-20T11:29:33;95691.64;;;5.85;100.00
59329;BME280;45100;46.926;7.452;2023-12-20T11:31:40;95686.94;;;5.86;100.00
59329;BME280;45100;46.926;7.452;2023-12-20T11:34:13;95686.92;;;5.85;100.00
59329;BME280;45100;46.926;7.452;2023-12-20T11:36:39;95691.95;;;5.81;99.67
59329;BME280;45100;46.926;7.452;2023-12-20T11:39:20;95683.22;;;5.76;99.41
59329;BME280;45100;46.926;7.452;2023-12-20T11:41:44;95681.61;;;5.72;99.89
59329;BME280;45100;46.926;7.452;2023-12-20T11:44:17;95680.54;;;5.68;99.67
59329;BME280;45100;46.926;7.452;2023-12-20T11:46:44;95679.02;;;5.63;99.09
59329;BME280;45100;46.926;7.452;2023-12-20T11:49:15;95678.42;;;5.60;99.17
59329;BME280;45100;46.926;7.452;2023-12-20T11:51:46;95679.53;;;5.56;98.25
59329;BME280;45100;46.926;7.452;2023-12-20T11:54:16;95680.44;;;5.53;98.42
59329;BME280;45100;46.926;7.452;2023-12-20T11:59:20;95673.73;;;5.54;99.07
59329;BME280;45100;46.926;7.452;2023-12-20T12:01:51;95673.45;;;5.53;97.51
59329;BME280;45100;46.926;7.452;2023-12-20T12:04:20;95672.08;;;5.51;97.73
59329;BME280;45100;46.926;7.452;2023-12-20T12:06:51;95677.56;;;5.48;96.85
59329;BME280;45100;46.926;7.452;2023-12-20T12:09:22;95670.07;;;5.45;96.50
59329;BME280;45100;46.926;7.452;2023-12-20T12:11:53;95672.48;;;5.41;96.58
59329;BME280;45100;46.926;7.452;2023-12-20T12:14:24;95670.33;;;5.39;96.82
59329;BME280;45100;46.926;7.452;2023-12-20T12:16:54;95663.81;;;5.42;96.60
59329;BME280;45100;46.926;7.452;2023-12-20T12:19:24;95651.62;;;5.45;96.36
59329;BME280;45100;46.926;7.452;2023-12-20T12:22:14;95645.92;;;5.48;96.50
59329;BME280;45100;46.926;7.452;2023-12-20T12:26:57;95638.23;;;5.48;94.68
59329;BME280;45100;46.926;7.452;2023-12-20T12:29:27;95640.84;;;5.51;95.84
59329;BME280;45100;46.926;7.452;2023-12-20T12:31:59;95646.52;;;5.53;95.87
59329;BME280;45100;46.926;7.452;2023-12-20T12:34:29;95647.05;;;5.54;94.12
59329;BME280;45100;46.926;7.452;2023-12-20T12:36:59;95647.36;;;5.55;93.52
59329;BME280;45100;46.926;7.452;2023-12-20T12:39:30;95655.77;;;5.57;92.83
59329;BME280;45100;46.926;7.452;2023-12-20T12:42:00;95652.38;;;5.59;90.92
59329;BME280;45100;46.926;7.452;2023-12-20T12:44:31;95657.47;;;5.63;90.78
59329;BME280;45100;46.926;7.452;2023-12-20T12:47:03;95658.23;;;5.67;90.58
59329;BME280;45100;46.926;7.452;2023-12-20T12:49:32;95663.12;;;5.69;90.87
59329;BME280;45100;46.926;7.452;2023-12-20T12:52:04;95656.20;;;5.70;90.96
59329;BME280;45100;46.926;7.452;2023-12-20T12:54:33;95657.48;;;5.70;91.22
59329;BME280;45100;46.926;7.452;2023-12-20T12:57:04;95665.36;;;5.69;92.04
59329;BME280;45100;46.926;7.452;2023-12-20T12:59:34;95663.18;;;5.67;92.78
59329;BME280;45100;46.926;7.452;2023-12-20T13:02:05;95668.98;;;5.67;93.25
59329;BME280;45100;46.926;7.452;2023-12-20T13:04:35;95666.98;;;5.64;93.42
59329;BME280;45100;46.926;7.452;2023-12-20T13:07:07;95672.42;;;5.62;93.40
59329;BME280;45100;46.926;7.452;2023-12-20T13:09:36;95670.48;;;5.59;93.98
59329;BME280;45100;46.926;7.452;2023-12-20T13:12:08;95671.69;;;5.58;93.53
59329;BME280;45100;46.926;7.452;2023-12-20T13:14:38;95667.73;;;5.56;92.81
59329;BME280;45100;46.926;7.452;2023-12-20T13:17:07;95665.64;;;5.54;91.00
59329;BME280;45100;46.926;7.452;2023-12-20T13:19:38;95672.38;;;5.53;90.77
59329;BME280;45100;46.926;7.452;2023-12-20T13:22:09;95668.78;;;5.51;91.19
59329;BME280;45100;46.926;7.452;2023-12-20T13:24:41;95675.92;;;5.51;91.76
59329;BME280;45100;46.926;7.452;2023-12-20T13:27:10;95679.26;;;5.49;91.79
59329;BME280;45100;46.926;7.452;2023-12-20T13:29:41;95681.84;;;5.48;91.98
59329;BME280;45100;46.926;7.452;2023-12-20T13:32:12;95681.89;;;5.48;90.07
59329;BME280;45100;46.926;7.452;2023-12-20T13:34:43;95686.33;;;5.47;86.76
59329;BME280;45100;46.926;7.452;2023-12-20T13:37:14;95697.78;;;5.44;85.27
59329;BME280;45100;46.926;7.452;2023-12-20T13:39:44;95699.46;;;5.37;83.81
59329;BME280;45100;46.926;7.452;2023-12-20T13:42:15;95708.99;;;5.33;84.58
59329;BME280;45100;46.926;7.452;2023-12-20T13:44:47;95713.98;;;5.27;84.24
59329;BME280;45100;46.926;7.452;2023-12-20T13:47:16;95716.52;;;5.23;83.58
59329;BME280;45100;46.926;7.452;2023-12-20T13:49:47;95725.93;;;5.18;84.45
59329;BME280;45100;46.926;7.452;2023-12-20T13:52:18;95727.12;;;5.15;85.13